sensor_id;sensor_type;location;lat;lon;timestamp;P1;durP1;ratioP1;P2;durP2;ratioP2
39896;SDS011;25567;48.276;14.242;2024-03-17T00:01:06;6.20;;;2.70;;
39896;SDS011;25567;48.276;14.242;2024-03-17T00:03:32;4.53;;;2.65;;
39896;SDS011;25567;48.276;14.242;2024-03-17T00:05:58;6.57;;;2.85;;
39896;SDS011;25567;48.276;14.242;2024-03-17T00:08:25;5.05;;;2.83;;
39896;SDS011;25567;48.276;14.242;2024-03-17T00:10:55;4.80;;;2.92;;
39896;SDS011;25567;48.276;14.242;2024-03-17T00:13:21;5.80;;;2.92;;
39896;SDS011;25567;48.276;14.242;2024-03-17T00:15:47;8.20;;;3.50;;
39896;SDS011;25567;48.276;14.242;2024-03-17T00:18:13;6.80;;;3.50;;
39896;SDS011;25567;48.276;14.242;2024-03-17T00:20:40;5.13;;;2.70;;
39896;SDS011;25567;48.276;14.242;2024-03-17T00:23:06;6.95;;;2.78;;
39896;SDS011;25567;48.276;14.242;2024-03-17T00:25:33;8.90;;;2.80;;
39896;SDS011;25567;48.276;14.242;2024-03-17T00:27:59;9.02;;;3.17;;
39896;SDS011;25567;48.276;14.242;2024-03-17T00:30:26;6.50;;;2.90;;
39896;SDS011;25567;48.276;14.242;2024-03-17T00:32:51;5.85;;;3.30;;
39896;SDS011;25567;48.276;14.242;2024-03-17T00:35:17;5.28;;;3.30;;
39896;SDS011;25567;48.276;14.242;2024-03-17T00:37:49;7.88;;;2.97;;
39896;SDS011;25567;48.276;14.242;2024-03-17T00:40:16;9.43;;;3.60;;
39896;SDS011;25567;48.276;14.242;2024-03-17T00:42:43;6.18;;;3.20;;
39896;SDS011;25567;48.276;14.242;2024-03-17T00:45:10;7.20;;;3.45;;
39896;SDS011;25567;48.276;14.242;2024-03-17T00:47:37;6.38;;;3.33;;
39896;SDS011;25567;48.276;14.242;2024-03-17T00:50:03;9.88;;;3.67;;
39896;SDS011;25567;48.276;14.242;2024-03-17T00:52:30;6.85;;;3.47;;
39896;SDS011;25567;48.276;14.242;2024-03-17T00:54:56;6.88;;;3.58;;
39896;SDS011;25567;48.276;14.242;2024-03-17T00:57:22;10.30;;;4.35;;
39896;SDS011;25567;48.276;14.242;2024-03-17T00:59:47;10.48;;;3.55;;
39896;SDS011;25567;48.276;14.242;2024-03-17T01:02:14;8.13;;;4.10;;
39896;SDS011;25567;48.276;14.242;2024-03-17T01:04:44;9.65;;;4.10;;
39896;SDS011;25567;48.276;14.242;2024-03-17T01:07:10;8.25;;;3.50;;
39896;SDS011;25567;48.276;14.242;2024-03-17T01:09:36;7.05;;;3.10;;
39896;SDS011;25567;48.276;14.242;2024-03-17T01:12:03;8.73;;;4.20;;
39896;SDS011;25567;48.276;14.242;2024-03-17T01:14:29;8.68;;;4.10;;
39896;SDS011;25567;48.276;14.242;2024-03-17T01:16:55;9.38;;;4.28;;
39896;SDS011;25567;48.276;14.242;2024-03-17T01:19:22;11.00;;;3.45;;
39896;SDS011;25567;48.276;14.242;2024-03-17T01:21:48;12.32;;;4.30;;
39896;SDS011;25567;48.276;14.242;2024-03-17T01:24:14;10.00;;;4.38;;
39896;SDS011;25567;48.276;14.242;2024-03-17T01:26:39;10.52;;;3.97;;
39896;SDS011;25567;48.276;14.242;2024-03-17T01:29:05;11.10;;;3.67;;
39896;SDS011;25567;48.276;14.242;2024-03-17T01:31:31;7.80;;;4.05;;
39896;SDS011;25567;48.276;14.242;2024-03-17T01:33:57;8.00;;;4.10;;
39896;SDS011;25567;48.276;14.242;2024-03-17T01:36:23;7.57;;;3.85;;
39896;SDS011;25567;48.276;14.242;2024-03-17T01:38:49;8.95;;;4.03;;
39896;SDS011;25567;48.276;14.242;2024-03-17T01:41:15;8.70;;;4.47;;
39896;SDS011;25567;48.276;14.242;2024-03-17T01:43:41;8.20;;;5.05;;
39896;SDS011;25567;48.276;14.242;2024-03-17T01:46:11;11.10;;;4.57;;
39896;SDS011;25567;48.276;14.242;2024-03-17T01:48:39;9.55;;;4.57;;
39896;SDS011;25567;48.276;14.242;2024-03-17T01:51:05;9.27;;;4.32;;
39896;SDS011;25567;48.276;14.242;2024-03-17T01:53:34;12.85;;;4.68;;
39896;SDS011;25567;48.276;14.242;2024-03-17T01:56:00;8.35;;;4.15;;
39896;SDS011;25567;48.276;14.242;2024-03-17T01:58:27;9.40;;;4.88;;
39896;SDS011;25567;48.276;14.242;2024-03-17T02:00:55;13.52;;;5.32;;
39896;SDS011;25567;48.276;14.242;2024-03-17T02:03:21;11.43;;;4.35;;
39896;SDS011;25567;48.276;14.242;2024-03-17T02:05:47;11.38;;;5.05;;
39896;SDS011;25567;48.276;14.242;2024-03-17T02:08:14;9.50;;;4.95;;
39896;SDS011;25567;48.276;14.242;2024-03-17T02:10:39;11.85;;;4.80;;
39896;SDS011;25567;48.276;14.242;2024-03-17T02:13:05;13.02;;;5.13;;
39896;SDS011;25567;48.276;14.242;2024-03-17T02:15:31;12.18;;;4.68;;
39896;SDS011;25567;48.276;14.242;2024-03-17T02:17:58;12.45;;;5.07;;
39896;SDS011;25567;48.276;14.242;2024-03-17T02:20:24;10.40;;;4.95;;
39896;SDS011;25567;48.276;14.242;2024-03-17T02:23:12;12.88;;;5.22;;
39896;SDS011;25567;48.276;14.242;2024-03-17T02:25:38;14.65;;;6.07;;
39896;SDS011;25567;48.276;14.242;2024-03-17T02:28:05;13.48;;;5.80;;
39896;SDS011;25567;48.276;14.242;2024-03-17T02:30:30;8.40;;;5.15;;
39896;SDS011;25567;48.276;14.242;2024-03-17T02:32:56;14.48;;;5.55;;
39896;SDS011;25567;48.276;14.242;2024-03-17T02:35:23;11.38;;;5.70;;
39896;SDS011;25567;48.276;14.242;2024-03-17T02:37:50;9.23;;;5.30;;
39896;SDS011;25567;48.276;14.242;2024-03-17T02:40:16;11.27;;;5.85;;
39896;SDS011;25567;48.276;14.242;2024-03-17T02:42:42;14.40;;;6.47;;
39896;SDS011;25567;48.276;14.242;2024-03-17T02:45:10;17.40;;;6.70;;
39896;SDS011;25567;48.276;14.242;2024-03-17T02:47:40;17.20;;;6.30;;
39896;SDS011;25567;48.276;14.242;2024-03-17T02:50:06;16.13;;;5.55;;
39896;SDS011;25567;48.276;14.242;2024-03-17T02:52:33;12.55;;;5.55;;
39896;SDS011;25567;48.276;14.242;2024-03-17T02:54:59;13.13;;;6.00;;
39896;SDS011;25567;48.276;14.242;2024-03-17T02:57:25;11.52;;;5.68;;
39896;SDS011;25567;48.276;14.242;2024-03-17T03:00:00;12.70;;;6.00;;
39896;SDS011;25567;48.276;14.242;2024-03-17T03:02:29;13.68;;;6.70;;
39896;SDS011;25567;48.276;14.242;2024-03-17T03:04:55;12.93;;;6.10;;
39896;SDS011;25567;48.276;14.242;2024-03-17T03:07:20;13.57;;;5.72;;
39896;SDS011;25567;48.276;14.242;2024-03-17T03:09:46;15.95;;;6.07;;
39896;SDS011;25567;48.276;14.242;2024-03-17T03:12:12;15.32;;;6.70;;
39896;SDS011;25567;48.276;14.242;2024-03-17T03:14:38;15.15;;;6.75;;
39896;SDS011;25567;48.276;14.242;2024-03-17T03:17:04;14.48;;;6.60;;
39896;SDS011;25567;48.276;14.242;2024-03-17T03:19:30;16.13;;;6.63;;
39896;SDS011;25567;48.276;14.242;2024-03-17T03:21:56;17.73;;;6.75;;
39896;SDS011;25567;48.276;14.242;2024-03-17T03:24:21;15.18;;;6.72;;
39896;SDS011;25567;48.276;14.242;2024-03-17T03:26:47;15.55;;;6.20;;
39896;SDS011;25567;48.276;14.242;2024-03-17T03:29:13;15.95;;;6.75;;
39896;SDS011;25567;48.276;14.242;2024-03-17T03:31:42;17.77;;;7.13;;
39896;SDS011;25567;48.276;14.242;2024-03-17T03:34:08;15.93;;;6.85;;
39896;SDS011;25567;48.276;14.242;2024-03-17T03:36:38;15.43;;;6.80;;
39896;SDS011;25567;48.276;14.242;2024-03-17T03:39:04;17.50;;;7.63;;
39896;SDS011;25567;48.276;14.242;2024-03-17T03:41:30;14.35;;;7.20;;
39896;SDS011;25567;48.276;14.242;2024-03-17T03:43:57;20.13;;;7.28;;
39896;SDS011;25567;48.276;14.242;2024-03-17T03:46:23;16.42;;;8.02;;
39896;SDS011;25567;48.276;14.242;2024-03-17T03:48:48;16.70;;;7.78;;
39896;SDS011;25567;48.276;14.242;2024-03-17T03:51:14;13.98;;;7.65;;
39896;SDS011;25567;48.276;14.242;2024-03-17T03:53:40;14.43;;;7.32;;
39896;SDS011;25567;48.276;14.242;2024-03-17T03:56:07;16.17;;;7.57;;
39896;SDS011;25567;48.276;14.242;2024-03-17T03:58:33;19.35;;;7.72;;
39896;SDS011;25567;48.276;14.242;2024-03-17T04:01:09;15.82;;;7.72;;
39896;SDS011;25567;48.276;14.242;2024-03-17T04:03:46;15.85;;;7.53;;
39896;SDS011;25567;48.276;14.242;2024-03-17T04:06:13;17.63;;;7.75;;
39896;SDS011;25567;48.276;14.242;2024-03-17T04:08:39;16.73;;;7.78;;
39896;SDS011;25567;48.276;14.242;2024-03-17T04:11:08;18.92;;;8.10;;
39896;SDS011;25567;48.276;14.242;2024-03-17T04:13:34;16.30;;;8.18;;
39896;SDS011;25567;48.276;14.242;2024-03-17T04:16:00;19.48;;;7.60;;
39896;SDS011;25567;48.276;14.242;2024-03-17T04:18:32;18.40;;;8.13;;
39896;SDS011;25567;48.276;14.242;2024-03-17T04:21:03;18.27;;;7.90;;
39896;SDS011;25567;48.276;14.242;2024-03-17T04:23:30;19.90;;;8.35;;
39896;SDS011;25567;48.276;14.242;2024-03-17T04:25:59;18.90;;;8.93;;
39896;SDS011;25567;48.276;14.242;2024-03-17T04:28:26;18.77;;;8.68;;
39896;SDS011;25567;48.276;14.242;2024-03-17T04:30:52;17.05;;;8.40;;
39896;SDS011;25567;48.276;14.242;2024-03-17T04:33:18;24.20;;;9.15;;
39896;SDS011;25567;48.276;14.242;2024-03-17T04:35:44;19.45;;;8.35;;
39896;SDS011;25567;48.276;14.242;2024-03-17T04:38:09;21.33;;;8.27;;
39896;SDS011;25567;48.276;14.242;2024-03-17T04:40:42;21.85;;;9.00;;
39896;SDS011;25567;48.276;14.242;2024-03-17T04:43:08;18.10;;;8.55;;
39896;SDS011;25567;48.276;14.242;2024-03-17T04:45:34;20.15;;;9.52;;
39896;SDS011;25567;48.276;14.242;2024-03-17T04:48:00;19.42;;;8.27;;
39896;SDS011;25567;48.276;14.242;2024-03-17T04:50:26;21.23;;;9.02;;
39896;SDS011;25567;48.276;14.242;2024-03-17T04:52:57;18.85;;;8.73;;
39896;SDS011;25567;48.276;14.242;2024-03-17T04:55:24;20.00;;;8.80;;
39896;SDS011;25567;48.276;14.242;2024-03-17T04:57:50;18.67;;;8.60;;
39896;SDS011;25567;48.276;14.242;2024-03-17T05:00:16;19.60;;;8.90;;
39896;SDS011;25567;48.276;14.242;2024-03-17T05:02:43;18.65;;;8.68;;
39896;SDS011;25567;48.276;14.242;2024-03-17T05:05:09;20.63;;;8.77;;
39896;SDS011;25567;48.276;14.242;2024-03-17T05:07:36;26.10;;;9.07;;
39896;SDS011;25567;48.276;14.242;2024-03-17T05:10:03;20.50;;;9.40;;
39896;SDS011;25567;48.276;14.242;2024-03-17T05:12:29;21.30;;;9.70;;
39896;SDS011;25567;48.276;14.242;2024-03-17T05:14:55;24.67;;;9.65;;
39896;SDS011;25567;48.276;14.242;2024-03-17T05:17:21;19.13;;;9.15;;
39896;SDS011;25567;48.276;14.242;2024-03-17T05:19:46;20.23;;;9.55;;
39896;SDS011;25567;48.276;14.242;2024-03-17T05:22:12;22.27;;;9.25;;
39896;SDS011;25567;48.276;14.242;2024-03-17T05:24:38;20.35;;;9.48;;
39896;SDS011;25567;48.276;14.242;2024-03-17T05:27:03;19.15;;;9.45;;
39896;SDS011;25567;48.276;14.242;2024-03-17T05:31:55;23.98;;;9.60;;
39896;SDS011;25567;48.276;14.242;2024-03-17T05:34:21;25.80;;;9.68;;
39896;SDS011;25567;48.276;14.242;2024-03-17T05:36:50;24.60;;;9.85;;
39896;SDS011;25567;48.276;14.242;2024-03-17T05:39:16;19.08;;;9.63;;
39896;SDS011;25567;48.276;14.242;2024-03-17T05:41:42;26.27;;;10.18;;
39896;SDS011;25567;48.276;14.242;2024-03-17T05:44:09;18.42;;;9.40;;
39896;SDS011;25567;48.276;14.242;2024-03-17T05:46:35;23.33;;;10.55;;
39896;SDS011;25567;48.276;14.242;2024-03-17T05:49:01;21.63;;;9.77;;
39896;SDS011;25567;48.276;14.242;2024-03-17T05:51:29;23.77;;;10.18;;
39896;SDS011;25567;48.276;14.242;2024-03-17T05:53:54;23.40;;;10.43;;
39896;SDS011;25567;48.276;14.242;2024-03-17T05:56:21;21.08;;;9.75;;
39896;SDS011;25567;48.276;14.242;2024-03-17T05:58:48;24.10;;;10.10;;
39896;SDS011;25567;48.276;14.242;2024-03-17T06:01:14;28.98;;;10.25;;
39896;SDS011;25567;48.276;14.242;2024-03-17T06:03:39;20.60;;;9.68;;
39896;SDS011;25567;48.276;14.242;2024-03-17T06:06:07;18.35;;;8.25;;
39896;SDS011;25567;48.276;14.242;2024-03-17T06:08:35;20.88;;;9.20;;
39896;SDS011;25567;48.276;14.242;2024-03-17T06:11:01;20.65;;;9.00;;
39896;SDS011;25567;48.276;14.242;2024-03-17T06:13:28;21.30;;;8.88;;
39896;SDS011;25567;48.276;14.242;2024-03-17T06:15:54;20.83;;;9.50;;
39896;SDS011;25567;48.276;14.242;2024-03-17T06:18:20;20.20;;;8.82;;
39896;SDS011;25567;48.276;14.242;2024-03-17T06:20:46;20.48;;;8.57;;
39896;SDS011;25567;48.276;14.242;2024-03-17T06:23:13;23.05;;;9.35;;
39896;SDS011;25567;48.276;14.242;2024-03-17T06:25:41;18.95;;;8.18;;
39896;SDS011;25567;48.276;14.242;2024-03-17T06:28:11;17.33;;;8.15;;
39896;SDS011;25567;48.276;14.242;2024-03-17T06:30:44;18.15;;;8.77;;
39896;SDS011;25567;48.276;14.242;2024-03-17T06:33:13;19.30;;;8.35;;
39896;SDS011;25567;48.276;14.242;2024-03-17T06:35:41;18.17;;;8.50;;
39896;SDS011;25567;48.276;14.242;2024-03-17T06:38:07;21.38;;;11.68;;
39896;SDS011;25567;48.276;14.242;2024-03-17T06:40:39;25.17;;;13.90;;
39896;SDS011;25567;48.276;14.242;2024-03-17T06:43:05;65.85;;;30.52;;
39896;SDS011;25567;48.276;14.242;2024-03-17T06:45:31;41.95;;;19.13;;
39896;SDS011;25567;48.276;14.242;2024-03-17T06:47:57;25.85;;;13.25;;
39896;SDS011;25567;48.276;14.242;2024-03-17T06:50:23;20.88;;;10.82;;
39896;SDS011;25567;48.276;14.242;2024-03-17T06:52:49;15.35;;;8.45;;
39896;SDS011;25567;48.276;14.242;2024-03-17T06:55:15;15.32;;;8.07;;
39896;SDS011;25567;48.276;14.242;2024-03-17T06:57:41;14.85;;;7.60;;
39896;SDS011;25567;48.276;14.242;2024-03-17T07:00:11;16.10;;;8.10;;
39896;SDS011;25567;48.276;14.242;2024-03-17T07:02:48;16.73;;;8.27;;
39896;SDS011;25567;48.276;14.242;2024-03-17T07:05:14;15.27;;;6.80;;
39896;SDS011;25567;48.276;14.242;2024-03-17T07:07:41;16.55;;;7.18;;
39896;SDS011;25567;48.276;14.242;2024-03-17T07:10:08;14.10;;;7.28;;
39896;SDS011;25567;48.276;14.242;2024-03-17T07:12:34;16.23;;;7.43;;
39896;SDS011;25567;48.276;14.242;2024-03-17T07:15:00;14.02;;;6.93;;
39896;SDS011;25567;48.276;14.242;2024-03-17T07:17:25;13.23;;;7.47;;
39896;SDS011;25567;48.276;14.242;2024-03-17T07:19:51;15.52;;;7.65;;
39896;SDS011;25567;48.276;14.242;2024-03-17T07:22:17;13.23;;;6.50;;
39896;SDS011;25567;48.276;14.242;2024-03-17T07:24:43;17.23;;;6.72;;
39896;SDS011;25567;48.276;14.242;2024-03-17T07:27:10;16.95;;;7.53;;
39896;SDS011;25567;48.276;14.242;2024-03-17T07:29:39;12.00;;;7.20;;
39896;SDS011;25567;48.276;14.242;2024-03-17T07:32:05;12.93;;;6.78;;
39896;SDS011;25567;48.276;14.242;2024-03-17T07:34:31;11.63;;;6.22;;
39896;SDS011;25567;48.276;14.242;2024-03-17T07:36:58;12.93;;;6.47;;
39896;SDS011;25567;48.276;14.242;2024-03-17T07:39:32;11.80;;;5.82;;
39896;SDS011;25567;48.276;14.242;2024-03-17T07:41:58;11.05;;;6.07;;
39896;SDS011;25567;48.276;14.242;2024-03-17T07:44:25;11.63;;;5.63;;
39896;SDS011;25567;48.276;14.242;2024-03-17T07:46:51;10.18;;;5.85;;
39896;SDS011;25567;48.276;14.242;2024-03-17T07:49:16;11.55;;;6.05;;
39896;SDS011;25567;48.276;14.242;2024-03-17T07:51:42;9.27;;;5.28;;
39896;SDS011;25567;48.276;14.242;2024-03-17T07:54:09;10.02;;;5.75;;
39896;SDS011;25567;48.276;14.242;2024-03-17T07:56:34;9.98;;;5.10;;
39896;SDS011;25567;48.276;14.242;2024-03-17T07:59:00;10.80;;;5.10;;
39896;SDS011;25567;48.276;14.242;2024-03-17T08:01:26;9.23;;;5.43;;
39896;SDS011;25567;48.276;14.242;2024-03-17T08:03:52;8.77;;;5.25;;
39896;SDS011;25567;48.276;14.242;2024-03-17T08:06:21;8.35;;;4.55;;
39896;SDS011;25567;48.276;14.242;2024-03-17T08:08:47;8.80;;;4.68;;
39896;SDS011;25567;48.276;14.242;2024-03-17T08:11:13;8.38;;;3.50;;
39896;SDS011;25567;48.276;14.242;2024-03-17T08:13:38;9.60;;;3.90;;
39896;SDS011;25567;48.276;14.242;2024-03-17T08:16:05;7.80;;;4.28;;
39896;SDS011;25567;48.276;14.242;2024-03-17T08:18:32;6.95;;;3.78;;
39896;SDS011;25567;48.276;14.242;2024-03-17T08:20:59;5.40;;;3.17;;
39896;SDS011;25567;48.276;14.242;2024-03-17T08:23:26;11.85;;;4.20;;
39896;SDS011;25567;48.276;14.242;2024-03-17T08:25:56;10.00;;;4.00;;
39896;SDS011;25567;48.276;14.242;2024-03-17T08:28:23;5.88;;;3.08;;
39896;SDS011;25567;48.276;14.242;2024-03-17T08:30:53;7.75;;;3.28;;
39896;SDS011;25567;48.276;14.242;2024-03-17T08:33:20;6.22;;;3.30;;
39896;SDS011;25567;48.276;14.242;2024-03-17T08:38:23;6.05;;;2.70;;
39896;SDS011;25567;48.276;14.242;2024-03-17T08:40:50;5.22;;;2.80;;
39896;SDS011;25567;48.276;14.242;2024-03-17T08:43:17;7.80;;;3.17;;
39896;SDS011;25567;48.276;14.242;2024-03-17T08:45:43;9.18;;;3.58;;
39896;SDS011;25567;48.276;14.242;2024-03-17T08:48:10;9.27;;;3.45;;
39896;SDS011;25567;48.276;14.242;2024-03-17T08:50:36;11.35;;;3.85;;
39896;SDS011;25567;48.276;14.242;2024-03-17T08:53:02;5.97;;;3.03;;
39896;SDS011;25567;48.276;14.242;2024-03-17T08:55:28;6.90;;;3.20;;
39896;SDS011;25567;48.276;14.242;2024-03-17T08:57:54;6.10;;;3.40;;
39896;SDS011;25567;48.276;14.242;2024-03-17T09:00:20;14.90;;;3.70;;
39896;SDS011;25567;48.276;14.242;2024-03-17T09:02:45;5.47;;;3.17;;
39896;SDS011;25567;48.276;14.242;2024-03-17T09:05:11;7.60;;;3.22;;
39896;SDS011;25567;48.276;14.242;2024-03-17T09:07:39;7.40;;;3.05;;
39896;SDS011;25567;48.276;14.242;2024-03-17T09:10:05;12.02;;;3.70;;
39896;SDS011;25567;48.276;14.242;2024-03-17T09:12:31;9.65;;;3.92;;
39896;SDS011;25567;48.276;14.242;2024-03-17T09:14:57;8.75;;;4.22;;
39896;SDS011;25567;48.276;14.242;2024-03-17T09:17:23;9.38;;;4.75;;
39896;SDS011;25567;48.276;14.242;2024-03-17T09:19:48;7.55;;;4.05;;
39896;SDS011;25567;48.276;14.242;2024-03-17T09:22:14;9.20;;;4.35;;
39896;SDS011;25567;48.276;14.242;2024-03-17T09:24:40;14.77;;;4.55;;
39896;SDS011;25567;48.276;14.242;2024-03-17T09:27:06;8.00;;;4.38;;
39896;SDS011;25567;48.276;14.242;2024-03-17T09:29:32;8.07;;;4.30;;
39896;SDS011;25567;48.276;14.242;2024-03-17T09:32:00;6.32;;;3.85;;
39896;SDS011;25567;48.276;14.242;2024-03-17T09:34:26;7.53;;;4.30;;
39896;SDS011;25567;48.276;14.242;2024-03-17T09:36:52;8.43;;;4.28;;
39896;SDS011;25567;48.276;14.242;2024-03-17T09:39:18;9.93;;;4.22;;
39896;SDS011;25567;48.276;14.242;2024-03-17T09:41:45;10.23;;;4.70;;
39896;SDS011;25567;48.276;14.242;2024-03-17T09:44:12;9.65;;;4.72;;
39896;SDS011;25567;48.276;14.242;2024-03-17T09:46:41;11.15;;;4.60;;
39896;SDS011;25567;48.276;14.242;2024-03-17T09:49:16;14.20;;;4.82;;
39896;SDS011;25567;48.276;14.242;2024-03-17T09:51:42;8.77;;;4.50;;
39896;SDS011;25567;48.276;14.242;2024-03-17T09:54:16;8.90;;;4.05;;
39896;SDS011;25567;48.276;14.242;2024-03-17T09:56:44;8.13;;;4.10;;
39896;SDS011;25567;48.276;14.242;2024-03-17T09:59:11;8.52;;;3.50;;
39896;SDS011;25567;48.276;14.242;2024-03-17T10:01:37;9.70;;;4.18;;
39896;SDS011;25567;48.276;14.242;2024-03-17T10:04:03;8.32;;;4.03;;
39896;SDS011;25567;48.276;14.242;2024-03-17T10:06:44;6.35;;;3.65;;
39896;SDS011;25567;48.276;14.242;2024-03-17T10:09:15;5.82;;;3.55;;
39896;SDS011;25567;48.276;14.242;2024-03-17T10:11:46;7.95;;;3.72;;
39896;SDS011;25567;48.276;14.242;2024-03-17T10:14:14;10.13;;;3.95;;
39896;SDS011;25567;48.276;14.242;2024-03-17T10:16:42;6.30;;;3.67;;
39896;SDS011;25567;48.276;14.242;2024-03-17T10:19:24;6.95;;;3.50;;
39896;SDS011;25567;48.276;14.242;2024-03-17T10:21:59;7.28;;;3.70;;
39896;SDS011;25567;48.276;14.242;2024-03-17T10:24:26;8.77;;;3.70;;
39896;SDS011;25567;48.276;14.242;2024-03-17T10:26:57;6.50;;;3.38;;
39896;SDS011;25567;48.276;14.242;2024-03-17T10:29:28;5.90;;;3.50;;
39896;SDS011;25567;48.276;14.242;2024-03-17T10:31:56;7.97;;;3.75;;
39896;SDS011;25567;48.276;14.242;2024-03-17T10:34:24;10.63;;;4.18;;
39896;SDS011;25567;48.276;14.242;2024-03-17T10:36:52;8.80;;;4.13;;
39896;SDS011;25567;48.276;14.242;2024-03-17T10:39:30;9.70;;;4.20;;
39896;SDS011;25567;48.276;14.242;2024-03-17T10:42:06;8.85;;;4.03;;
39896;SDS011;25567;48.276;14.242;2024-03-17T10:44:36;8.70;;;4.55;;
39896;SDS011;25567;48.276;14.242;2024-03-17T10:47:04;7.35;;;3.85;;
39896;SDS011;25567;48.276;14.242;2024-03-17T10:49:37;7.93;;;3.63;;
39896;SDS011;25567;48.276;14.242;2024-03-17T10:52:04;8.00;;;4.22;;
39896;SDS011;25567;48.276;14.242;2024-03-17T10:54:31;10.55;;;4.57;;
39896;SDS011;25567;48.276;14.242;2024-03-17T10:57:06;6.65;;;3.83;;
39896;SDS011;25567;48.276;14.242;2024-03-17T10:59:50;8.18;;;4.25;;
39896;SDS011;25567;48.276;14.242;2024-03-17T11:02:22;5.60;;;3.53;;
39896;SDS011;25567;48.276;14.242;2024-03-17T11:04:53;7.72;;;3.53;;
39896;SDS011;25567;48.276;14.242;2024-03-17T11:07:20;7.03;;;3.58;;
39896;SDS011;25567;48.276;14.242;2024-03-17T11:09:47;10.35;;;3.67;;
39896;SDS011;25567;48.276;14.242;2024-03-17T11:17:54;6.82;;;3.83;;
39896;SDS011;25567;48.276;14.242;2024-03-17T11:20:41;7.20;;;3.60;;
39896;SDS011;25567;48.276;14.242;2024-03-17T11:23:09;5.93;;;3.50;;
39896;SDS011;25567;48.276;14.242;2024-03-17T11:28:00;10.38;;;3.47;;
39896;SDS011;25567;48.276;14.242;2024-03-17T11:38:55;7.50;;;3.50;;
39896;SDS011;25567;48.276;14.242;2024-03-17T11:41:44;23.23;;;5.15;;
39896;SDS011;25567;48.276;14.242;2024-03-17T11:49:25;5.90;;;3.40;;
39896;SDS011;25567;48.276;14.242;2024-03-17T11:51:57;6.53;;;3.67;;
39896;SDS011;25567;48.276;14.242;2024-03-17T11:54:28;7.10;;;3.10;;
39896;SDS011;25567;48.276;14.242;2024-03-17T11:56:56;6.85;;;3.80;;
39896;SDS011;25567;48.276;14.242;2024-03-17T11:59:26;5.43;;;3.08;;
39896;SDS011;25567;48.276;14.242;2024-03-17T12:01:52;6.65;;;3.17;;
39896;SDS011;25567;48.276;14.242;2024-03-17T12:04:19;7.10;;;3.65;;
39896;SDS011;25567;48.276;14.242;2024-03-17T12:09:22;7.40;;;3.03;;
39896;SDS011;25567;48.276;14.242;2024-03-17T12:11:50;10.15;;;3.03;;
39896;SDS011;25567;48.276;14.242;2024-03-17T12:14:35;6.05;;;3.70;;
39896;SDS011;25567;48.276;14.242;2024-03-17T12:17:03;9.52;;;3.03;;
39896;SDS011;25567;48.276;14.242;2024-03-17T12:19:30;5.70;;;3.28;;
39896;SDS011;25567;48.276;14.242;2024-03-17T12:21:56;9.98;;;3.20;;
39896;SDS011;25567;48.276;14.242;2024-03-17T12:24:25;4.03;;;2.55;;
39896;SDS011;25567;48.276;14.242;2024-03-17T12:26:56;4.57;;;2.80;;
39896;SDS011;25567;48.276;14.242;2024-03-17T12:29:29;8.55;;;3.03;;
39896;SDS011;25567;48.276;14.242;2024-03-17T12:32:24;6.07;;;3.03;;
39896;SDS011;25567;48.276;14.242;2024-03-17T12:34:57;6.90;;;3.17;;
39896;SDS011;25567;48.276;14.242;2024-03-17T12:37:24;9.32;;;2.90;;
39896;SDS011;25567;48.276;14.242;2024-03-17T12:40:00;5.25;;;3.03;;
39896;SDS011;25567;48.276;14.242;2024-03-17T12:42:27;4.72;;;2.70;;
39896;SDS011;25567;48.276;14.242;2024-03-17T12:47:26;6.97;;;2.70;;
39896;SDS011;25567;48.276;14.242;2024-03-17T12:49:58;6.45;;;2.72;;
39896;SDS011;25567;48.276;14.242;2024-03-17T12:52:28;6.38;;;2.20;;
39896;SDS011;25567;48.276;14.242;2024-03-17T12:55:07;8.32;;;2.35;;
39896;SDS011;25567;48.276;14.242;2024-03-17T12:58:14;5.47;;;2.22;;
39896;SDS011;25567;48.276;14.242;2024-03-17T13:00:58;5.70;;;2.50;;
39896;SDS011;25567;48.276;14.242;2024-03-17T13:06:01;4.80;;;2.22;;
39896;SDS011;25567;48.276;14.242;2024-03-17T13:08:29;4.82;;;2.00;;
39896;SDS011;25567;48.276;14.242;2024-03-17T13:10:57;5.03;;;1.67;;
39896;SDS011;25567;48.276;14.242;2024-03-17T13:13:24;7.70;;;1.92;;
39896;SDS011;25567;48.276;14.242;2024-03-17T13:15:50;4.40;;;2.03;;
39896;SDS011;25567;48.276;14.242;2024-03-17T13:18:17;7.35;;;2.30;;
39896;SDS011;25567;48.276;14.242;2024-03-17T13:20:44;6.47;;;2.33;;
39896;SDS011;25567;48.276;14.242;2024-03-17T13:23:11;6.22;;;2.65;;
39896;SDS011;25567;48.276;14.242;2024-03-17T13:25:38;5.10;;;2.38;;
39896;SDS011;25567;48.276;14.242;2024-03-17T13:28:04;5.00;;;2.00;;
39896;SDS011;25567;48.276;14.242;2024-03-17T13:30:32;5.90;;;2.08;;
39896;SDS011;25567;48.276;14.242;2024-03-17T13:33:02;5.18;;;1.85;;
39896;SDS011;25567;48.276;14.242;2024-03-17T13:35:34;4.63;;;1.98;;
39896;SDS011;25567;48.276;14.242;2024-03-17T13:38:04;6.18;;;2.40;;
39896;SDS011;25567;48.276;14.242;2024-03-17T13:40:34;4.10;;;2.17;;
39896;SDS011;25567;48.276;14.242;2024-03-17T13:43:01;6.53;;;2.30;;
39896;SDS011;25567;48.276;14.242;2024-03-17T13:45:27;3.08;;;2.03;;
39896;SDS011;25567;48.276;14.242;2024-03-17T13:50:22;2.75;;;2.20;;
39896;SDS011;25567;48.276;14.242;2024-03-17T13:52:48;5.55;;;2.28;;
39896;SDS011;25567;48.276;14.242;2024-03-17T13:55:16;6.82;;;2.17;;
39896;SDS011;25567;48.276;14.242;2024-03-17T13:57:46;5.75;;;2.60;;
39896;SDS011;25567;48.276;14.242;2024-03-17T14:00:14;5.78;;;2.20;;
39896;SDS011;25567;48.276;14.242;2024-03-17T14:02:45;4.93;;;2.22;;
39896;SDS011;25567;48.276;14.242;2024-03-17T14:05:12;5.25;;;1.67;;
39896;SDS011;25567;48.276;14.242;2024-03-17T14:07:40;5.07;;;1.90;;
39896;SDS011;25567;48.276;14.242;2024-03-17T14:10:07;5.25;;;1.90;;
39896;SDS011;25567;48.276;14.242;2024-03-17T14:12:35;9.23;;;1.80;;
39896;SDS011;25567;48.276;14.242;2024-03-17T14:15:03;4.63;;;1.92;;
39896;SDS011;25567;48.276;14.242;2024-03-17T14:17:30;6.10;;;1.80;;
39896;SDS011;25567;48.276;14.242;2024-03-17T14:19:56;4.20;;;1.90;;
39896;SDS011;25567;48.276;14.242;2024-03-17T14:22:22;3.35;;;1.75;;
39896;SDS011;25567;48.276;14.242;2024-03-17T14:24:48;4.40;;;2.00;;
39896;SDS011;25567;48.276;14.242;2024-03-17T14:27:15;5.13;;;1.77;;
39896;SDS011;25567;48.276;14.242;2024-03-17T14:29:43;5.75;;;1.85;;
39896;SDS011;25567;48.276;14.242;2024-03-17T14:32:09;8.20;;;2.10;;
39896;SDS011;25567;48.276;14.242;2024-03-17T14:34:35;6.97;;;2.17;;
39896;SDS011;25567;48.276;14.242;2024-03-17T14:37:02;4.35;;;1.85;;
39896;SDS011;25567;48.276;14.242;2024-03-17T14:39:29;6.45;;;2.20;;
39896;SDS011;25567;48.276;14.242;2024-03-17T14:41:56;3.83;;;1.90;;
39896;SDS011;25567;48.276;14.242;2024-03-17T14:44:22;4.10;;;1.60;;
39896;SDS011;25567;48.276;14.242;2024-03-17T14:46:48;5.30;;;1.80;;
39896;SDS011;25567;48.276;14.242;2024-03-17T14:49:17;5.88;;;1.70;;
39896;SDS011;25567;48.276;14.242;2024-03-17T14:51:43;3.13;;;1.70;;
39896;SDS011;25567;48.276;14.242;2024-03-17T14:54:09;3.40;;;2.10;;
39896;SDS011;25567;48.276;14.242;2024-03-17T14:56:36;4.30;;;1.33;;
39896;SDS011;25567;48.276;14.242;2024-03-17T14:59:02;3.08;;;1.40;;
39896;SDS011;25567;48.276;14.242;2024-03-17T15:01:27;4.00;;;1.50;;
39896;SDS011;25567;48.276;14.242;2024-03-17T15:03:55;2.45;;;1.20;;
39896;SDS011;25567;48.276;14.242;2024-03-17T15:06:21;2.75;;;1.30;;
39896;SDS011;25567;48.276;14.242;2024-03-17T15:08:47;3.45;;;1.40;;